Latest Weather Observations for Mount William

IDV60801

Issued at 10:05 pm EDT Monday 20 October 2014 (issued every 30 minutes, with the page automatically refreshed every 10 minutes)

About weather observations | Map of weather stations | Latest weather observations for VIC | Other Formats
Station Details ID: 079103 Name: MOUNT WILLIAM Lat: -37.30 Lon: 142.60 Height: 1150.0 m
Data from the previous 72 hours. | See also: Recent months at Mount William
Date/Time
EDT
Temp
°C
App
Temp
°C
Dew
Point
Rel
Hum
%
Delta-T
°C
Wind Press
QNH
hPa
Press
MSL
hPa
Rain
since 9 am
mm
Dir
 
Spd
km/h
Gust
km/h
Spd
kts
Gust
kts
20/10:00pm 13.7 6.1 -27.6 4 10.3 SSE 20 26 11 14 - - 0.2
20/09:30pm 12.9 5.4 -22.0 7 9.6 SSE 20 26 11 14 - - 0.2
20/09:00pm 9.8 2.3 -4.9 35 5.7 SSE 26 30 14 16 - - 0.2
20/08:30pm 6.5 0.0 2.8 77 1.7 SSE 26 30 14 16 - - 0.2
20/08:00pm 6.5 0.6 3.8 83 1.2 S 24 28 13 15 - - 0.2
20/07:30pm 7.4 0.3 3.5 76 1.8 SSE 30 33 16 18 - - 0.2
20/07:00pm 8.7 1.0 2.5 65 2.8 SSE 32 35 17 19 - - 0.2
20/06:30pm 9.3 1.3 1.9 60 3.3 SSE 33 37 18 20 - - 0.2
20/06:00pm 10.2 2.4 1.6 55 3.9 SSE 32 37 17 20 - - 0.2
20/05:30pm 10.7 2.9 1.5 53 4.1 SSE 32 39 17 21 - - 0.2
20/05:00pm 11.0 3.0 1.8 53 4.2 SSE 33 43 18 23 - - 0.2
20/04:30pm 11.4 3.6 1.9 52 4.3 SSE 32 41 17 22 - - 0.2
20/04:00pm 11.9 5.0 2.4 52 4.4 SSE 28 37 15 20 - - 0.2
20/03:30pm 11.8 5.0 0.6 46 5.0 SSE 26 33 14 18 - - 0.2
20/03:00pm 11.6 5.2 1.0 48 4.8 SSE 24 33 13 18 - - 0.2
20/02:30pm 11.2 4.3 0.3 47 4.8 SSE 26 35 14 19 - - 0.2
20/02:00pm 10.9 4.6 1.7 53 4.2 SSE 24 35 13 19 - - 0.2
20/01:30pm 10.4 4.3 0.7 51 4.3 SSE 22 28 12 15 - - 0.2
20/01:00pm 9.7 4.1 1.4 56 3.7 SSE 20 30 11 16 - - 0.2
20/12:30pm 10.3 5.5 0.1 49 4.4 SSE 15 22 8 12 - - 0.2
20/12:00pm 11.0 6.8 1.5 52 4.3 SE 13 20 7 11 - - 0.2
20/11:30am 8.7 2.9 0.2 55 3.6 SE 20 26 11 14 - - 0.0
20/11:00am 10.6 4.7 -0.8 45 4.9 SE 20 28 11 15 - - 0.0
20/10:30am 8.4 0.3 -3.1 44 4.5 SE 30 33 16 18 - - 0.0
20/10:00am 5.7 -2.1 -0.8 63 2.6 SSE 30 41 16 22 - - 0.0
20/09:30am 3.9 -3.5 3.8 99 0.0 SSE 32 44 17 24 - - 0.0
20/09:00am 1.6 -8.3 1.5 99 0.0 SSE 43 52 23 28 - - 0.0
20/08:30am 1.3 -9.2 1.2 99 0.0 SSE 46 54 25 29 - - 0.0
20/08:00am 1.1 -9.9 1.0 99 0.0 SSE 48 59 26 32 - - 0.0
20/07:30am 1.0 -11.1 0.9 99 0.0 SSE 54 63 29 34 - - 0.0
20/07:00am 1.6 -9.7 1.5 99 0.0 SSE 50 65 27 35 - - 0.0
20/06:30am 1.0 -10.3 0.9 99 0.0 SSE 50 61 27 33 - - 0.0
20/06:00am 1.8 -9.4 1.7 99 0.0 SSE 50 63 27 34 - - 0.0
20/05:30am 1.7 -9.9 1.6 99 0.0 SSE 52 72 28 39 - - 0.0
20/05:23am 1.9 -9.7 1.8 99 0.0 SSE 52 72 28 39 - - 0.0
20/05:00am 1.8 -9.8 1.7 99 0.0 SSE 52 61 28 33 - - 0.0
20/04:30am 2.3 -9.2 2.2 99 0.0 SSE 52 63 28 34 - - 0.0
20/04:00am 2.4 -9.5 2.3 99 0.0 SSE 54 61 29 33 - - 0.0
20/03:30am 2.4 -9.1 2.3 99 0.0 SSE 52 61 28 33 - - 0.0
20/03:00am 3.0 -8.0 2.9 99 0.0 SSE 50 59 27 32 - - 0.0
20/02:30am 3.3 -8.4 3.2 99 0.0 SSE 54 67 29 36 - - 0.0
20/02:00am 4.0 -6.8 3.9 99 0.0 SSE 50 61 27 33 - - 0.0
20/01:30am 3.9 -7.3 3.8 99 0.0 SSE 52 65 28 35 - - 0.0
20/01:00am 4.1 -7.9 4.0 99 0.0 SSE 56 65 30 35 - - 0.0
20/12:30am 4.5 -5.9 4.4 99 0.0 S 48 61 26 33 - - 0.0
20/12:00am 4.7 -5.6 4.6 99 0.0 S 48 59 26 32 - - 0.0
 
Date/Time
EDT
Temp
°C
App
Temp
°C
Dew
Point
Rel
Hum
%
Delta-T
°C
Wind Press
QNH
hPa
Press
MSL
hPa
Rain
since 9 am
mm
Dir
 
Spd
km/h
Gust
km/h
Spd
kts
Gust
kts
19/11:30pm 4.9 -5.4 4.8 99 0.0 S 48 59 26 32 - - 0.0
19/11:00pm 5.1 -5.1 5.0 99 0.0 S 48 61 26 33 - - 0.0
19/10:30pm 5.3 -4.5 5.2 99 0.0 S 46 61 25 33 - - 0.0
19/10:00pm 5.3 -3.6 5.2 99 0.0 S 41 52 22 28 - - 0.0
19/09:36pm 5.2 -4.3 5.1 99 0.0 S 44 63 24 34 - - 0.0
19/09:30pm 4.9 -4.6 4.8 99 0.0 S 44 57 24 31 - - 0.0
19/09:03pm 6.5 -1.7 6.4 99 0.0 S 39 57 21 31 - - 0.0
19/09:00pm 6.6 -1.2 6.5 99 0.0 S 37 54 20 29 - - 0.0
19/08:47pm 6.8 -0.6 6.7 99 0.0 S 35 54 19 29 - - 0.0
19/08:30pm 7.7 1.6 6.8 94 0.4 S 28 39 15 21 - - 0.0
19/08:24pm 7.8 1.6 6.1 89 0.8 S 28 35 15 19 - - 0.0
19/08:00pm 12.8 5.3 1.5 46 5.2 SW 30 43 16 23 - - 0.0
19/07:30pm 11.9 4.2 5.3 64 3.3 SW 35 56 19 30 - - 0.0
19/07:14pm 12.0 5.8 6.3 68 2.9 SW 28 48 15 26 - - 0.0
19/07:00pm 12.7 8.4 7.0 68 2.9 SW 19 24 10 13 - - 0.0
19/06:30pm 14.7 11.7 7.5 62 3.8 WSW 13 20 7 11 - - 0.0
19/06:00pm 15.2 11.7 8.7 65 3.5 WSW 17 24 9 13 - - 0.0
19/05:30pm 15.9 13.0 9.6 66 3.5 SW 15 22 8 12 - - 0.0
19/05:00pm 19.9 16.6 6.6 42 7.1 W 13 24 7 13 - - 0.0
19/04:30pm 21.5 17.2 3.2 30 9.3 WSW 15 37 8 20 - - 0.0
19/04:00pm 21.8 16.7 0.9 25 10.1 WSW 17 30 9 16 - - 0.0
19/03:30pm 22.4 18.3 2.5 27 10.0 SW 13 26 7 14 - - 0.0
19/03:00pm 22.2 15.5 -1.1 21 10.9 WSW 24 41 13 22 - - 0.0
19/02:30pm 22.5 15.2 -0.3 22 10.9 WSW 28 44 15 24 - - 0.0
19/02:02pm 22.3 15.0 0.2 23 10.6 W 28 46 15 25 - - 0.0
19/02:00pm 22.3 15.5 0.8 24 10.4 W 26 46 14 25 - - 0.0
19/01:34pm 20.9 12.1 -1.0 23 10.2 W 35 56 19 30 - - 0.0
19/01:30pm 20.4 11.7 -0.3 25 9.7 W 35 50 19 27 - - 0.0
19/01:01pm 20.2 12.2 0.6 27 9.3 W 32 52 17 28 - - 0.0
19/01:00pm 20.2 12.0 0.6 27 9.3 W 33 52 18 28 - - 0.0
19/12:30pm 20.0 11.3 -0.6 25 9.6 W 35 57 19 31 - - 0.0
19/12:00pm 18.1 8.5 -1.2 27 8.7 W 39 59 21 32 - - 0.0
19/11:30am 17.6 8.0 -1.6 27 8.6 W 39 59 21 32 - - 0.0
19/11:00am 18.2 8.6 -1.6 26 8.9 W 39 57 21 31 - - 0.0
19/10:30am 19.3 10.1 -1.2 25 9.4 W 37 57 20 31 - - 0.0
19/10:09am 18.6 9.7 -1.8 25 9.2 WNW 35 57 19 31 - - 0.0
19/10:00am 18.7 9.9 -1.2 26 9.0 WNW 35 54 19 29 - - 0.0
19/09:32am 17.0 8.5 -1.6 28 8.3 WNW 33 52 18 28 - - 0.0
19/09:30am 16.9 8.0 -2.2 27 8.4 WNW 35 52 19 28 - - 0.0
19/09:27am 17.0 8.5 -2.1 27 8.4 WNW 33 52 18 28 - - 0.0
19/09:00am 15.7 6.4 -2.3 29 7.8 WNW 37 56 20 30 - - 0.0
19/08:30am 15.7 6.3 -3.2 27 8.0 WNW 37 56 20 30 - - 0.0
19/08:00am 15.9 6.0 -3.6 26 8.2 WNW 39 57 21 31 - - 0.0
19/07:48am 15.4 5.4 -4.5 25 8.2 WNW 39 57 21 31 - - 0.0
19/07:30am 15.6 4.8 -4.9 24 8.4 NW 43 59 23 32 - - 0.0
19/07:00am 15.3 5.3 -4.6 25 8.2 WNW 39 52 21 28 - - 0.0
19/06:30am 15.2 5.6 -4.7 25 8.2 WNW 37 50 20 27 - - 0.0
19/06:05am 15.3 6.5 -4.6 25 8.2 WNW 33 52 18 28 - - 0.0
19/06:00am 15.3 6.1 -4.6 25 8.2 WNW 35 52 19 28 - - 0.0
19/05:38am 15.3 5.7 -4.6 25 8.2 WNW 37 57 20 31 - - 0.0
19/05:30am 15.3 6.1 -4.6 25 8.2 WNW 35 52 19 28 - - 0.0
19/05:00am 15.2 6.4 -4.2 26 8.0 WNW 33 52 18 28 - - 0.0
19/04:30am 15.4 6.6 -4.5 25 8.2 WNW 33 48 18 26 - - 0.0
19/04:14am 15.3 6.1 -4.1 26 8.1 WNW 35 54 19 29 - - 0.0
19/04:00am 15.3 5.3 -4.6 25 8.2 WNW 39 56 21 30 - - 0.0
19/03:30am 15.1 5.1 -4.8 25 8.1 WNW 39 52 21 28 - - 0.0
19/03:04am 15.1 6.2 -5.3 24 8.2 WNW 33 52 18 28 - - 0.0
19/03:00am 15.1 6.2 -5.3 24 8.2 WNW 33 48 18 26 - - 0.0
19/02:31am 15.1 5.1 -5.3 24 8.2 NW 39 57 21 31 - - 0.0
19/02:30am 15.1 4.7 -4.8 25 8.1 NW 41 57 22 31 - - 0.0
19/02:00am 15.1 3.7 -5.3 24 8.2 NNW 46 65 25 35 - - 0.0
19/01:39am 15.1 5.5 -4.2 26 8.0 NW 37 61 20 33 - - 0.0
19/01:30am 15.0 5.9 -3.8 27 7.8 NW 35 50 19 27 - - 0.0
19/01:00am 15.1 5.2 -3.7 27 7.9 NW 39 59 21 32 - - 0.0
19/12:30am 15.3 5.4 -3.6 27 7.9 NNW 39 59 21 32 - - 0.0
19/12:16am 15.6 4.8 -3.8 26 8.1 NNW 44 65 24 35 - - 0.0
19/12:00am 15.2 5.0 -3.6 27 7.9 NNW 41 56 22 30 - - 0.0
 
Date/Time
EDT
Temp
°C
App
Temp
°C
Dew
Point
Rel
Hum
%
Delta-T
°C
Wind Press
QNH
hPa
Press
MSL
hPa
Rain
since 9 am
mm
Dir
 
Spd
km/h
Gust
km/h
Spd
kts
Gust
kts
18/11:31pm 15.1 5.3 -3.2 28 7.7 NNW 39 57 21 31 - - 0.0
18/11:30pm 15.1 4.9 -3.2 28 7.7 NNW 41 57 22 31 - - 0.0
18/11:00pm 16.3 6.1 -3.2 26 8.3 NNW 41 61 22 33 - - 0.0
18/10:30pm 16.2 6.0 -3.3 26 8.3 N 41 59 22 32 - - 0.0
18/10:03pm 16.1 6.3 -3.4 26 8.3 N 39 59 21 32 - - 0.0
18/10:00pm 16.2 6.8 -3.3 26 8.3 N 37 54 20 29 - - 0.0
18/09:30pm 16.2 6.8 -3.3 26 8.3 N 37 56 20 30 - - 0.0
18/09:11pm 16.3 6.9 -3.2 26 8.3 N 37 57 20 31 - - 0.0
18/09:00pm 16.4 7.0 -3.1 26 8.4 N 37 50 20 27 - - 0.0
18/08:38pm 16.4 7.0 -3.1 26 8.4 N 37 56 20 30 - - 0.0
18/08:30pm 16.6 7.9 -3.0 26 8.4 N 33 50 18 27 - - 0.0
18/08:00pm 16.9 8.2 -3.2 25 8.6 N 33 52 18 28 - - 0.0
18/07:30pm 17.3 9.2 -2.9 25 8.8 N 30 46 16 25 - - 0.0
18/07:00pm 17.7 10.1 -2.5 25 8.9 N 28 43 15 23 - - 0.0
18/06:30pm 17.6 10.4 -2.1 26 8.7 NNW 26 39 14 21 - - 0.0
18/06:00pm 17.7 10.9 -1.5 27 8.6 NNW 24 41 13 22 - - 0.0
18/05:30pm 17.6 10.8 -1.6 27 8.6 NNW 24 39 13 21 - - 0.0
18/05:00pm 17.3 10.9 -1.4 28 8.4 NNW 22 37 12 20 - - 0.0
18/04:33pm 17.5 10.0 -1.2 28 8.4 NNW 28 46 15 25 - - 0.0
18/04:30pm 17.5 10.4 -1.2 28 8.4 NNW 26 46 14 25 - - 0.0
18/04:14pm 17.1 9.6 -1.5 28 8.3 N 28 46 15 25 - - 0.0
18/04:00pm 16.9 10.6 -1.2 29 8.1 N 22 37 12 20 - - 0.0
18/03:30pm 17.5 11.9 0.2 31 8.0 N 19 37 10 20 - - 0.0
18/03:00pm 18.8 13.2 0.9 30 8.5 N 20 35 11 19 - - 0.0
18/02:30pm 18.2 12.3 1.7 33 7.9 N 22 39 12 21 - - 0.0
18/02:00pm 18.1 12.3 2.4 35 7.6 N 22 39 12 21 - - 0.0
18/01:30pm 15.7 8.9 0.7 36 6.9 N 26 43 14 23 - - 0.0
18/01:00pm 15.6 7.7 2.4 41 6.3 NNE 33 46 18 25 - - 0.0
18/12:49pm 15.0 7.3 2.2 42 6.1 NNE 32 54 17 29 - - 0.0
18/12:30pm 13.5 7.2 1.5 44 5.5 N 24 43 13 23 - - 0.0
18/12:00pm 14.4 9.1 2.0 43 5.8 N 19 33 10 18 - - 0.0
18/11:30am 14.7 9.8 2.3 43 5.9 NNW 17 32 9 17 - - 0.0
18/11:00am 13.9 9.7 1.9 44 5.6 N 13 28 7 15 - - 0.0
18/10:30am 13.0 7.4 1.0 44 5.4 NNW 20 33 11 18 - - 0.0
18/10:00am 13.0 8.4 1.4 45 5.3 N 15 24 8 13 - - 0.0
18/09:30am 11.7 5.9 -0.1 44 5.2 NW 20 32 11 17 - - 0.0
18/09:00am 11.3 4.3 -0.5 44 5.1 NNW 26 41 14 22 - - 0.0
18/08:30am 10.8 3.7 -1.3 43 5.1 NNW 26 37 14 20 - - 0.0
18/08:00am 9.8 1.3 -1.6 45 4.7 NNW 33 37 18 20 - - 0.0
18/07:30am 9.6 2.0 -2.3 43 4.9 NNW 28 35 15 19 - - 0.0
18/07:00am 9.3 2.9 -2.0 45 4.6 NNW 22 32 12 17 - - 0.0
18/06:30am 9.7 2.5 -1.9 44 4.8 NNW 26 33 14 18 - - 0.0
18/06:00am 9.2 2.4 -2.1 45 4.6 NNW 24 33 13 18 - - 0.0
18/05:30am 9.6 3.1 -2.3 43 4.9 NNW 22 28 12 15 - - 0.0
18/05:00am 9.8 2.2 -2.2 43 4.9 NNW 28 33 15 18 - - 0.0
18/04:30am 9.7 2.9 -1.9 44 4.8 NNW 24 32 13 17 - - 0.0
18/04:00am 9.4 2.6 -2.2 44 4.7 NNW 24 33 13 18 - - 0.0
18/03:30am 9.5 2.7 -2.1 44 4.8 NNW 24 30 13 16 - - 0.0
18/03:00am 9.6 2.0 -2.0 44 4.8 NNW 28 37 15 20 - - 0.0
18/02:30am 9.5 2.3 -2.1 44 4.8 NNW 26 35 14 19 - - 0.0
18/02:00am 9.3 2.1 -1.7 46 4.5 N 26 32 14 17 - - 0.0
18/01:30am 9.3 2.1 -2.0 45 4.6 N 26 32 14 17 - - 0.0
18/01:00am 9.3 2.1 -1.7 46 4.5 N 26 33 14 18 - - 0.0
18/12:30am 9.1 1.5 -1.9 46 4.5 N 28 33 15 18 - - 0.0
18/12:00am 9.0 2.6 -1.7 47 4.4 N 22 28 12 15 - - 0.0
 
Date/Time
EDT
Temp
°C
App
Temp
°C
Dew
Point
Rel
Hum
%
Delta-T
°C
Wind Press
QNH
hPa
Press
MSL
hPa
Rain
since 9 am
mm
Dir
 
Spd
km/h
Gust
km/h
Spd
kts
Gust
kts
17/11:30pm 9.0 3.3 -1.1 49 4.2 N 19 20 10 11 - - 0.0
17/11:00pm 9.3 3.8 -2.0 45 4.6 NNW 17 19 9 10 - - 0.0
17/10:30pm 9.5 4.0 -2.1 44 4.8 NW 17 19 9 10 - - 0.0

Other Formats:

Comma delimited format used in spreadsheet applications
http://www.bom.gov.au/fwo/IDV60801/IDV60801.94833.axf

JavaScript Object Notation format (JSON) in row-major order
http://www.bom.gov.au/fwo/IDV60801/IDV60801.94833.json